createdAt,value
2023-07-03T00:00:54.360Z,1.83
2023-07-03T00:03:22.358Z,1.63
2023-07-03T00:05:50.743Z,1.77
2023-07-03T00:08:19.697Z,1.67
2023-07-03T00:10:48.352Z,1.60
2023-07-03T00:13:16.593Z,1.70
2023-07-03T00:15:46.097Z,1.80
2023-07-03T00:18:13.984Z,1.57
2023-07-03T00:20:42.070Z,1.93
2023-07-03T00:23:10.417Z,1.27
2023-07-03T00:25:39.922Z,1.00
2023-07-03T00:28:10.104Z,2.40
2023-07-03T00:30:38.840Z,1.03
2023-07-03T00:33:08.830Z,1.60
2023-07-03T00:35:37.109Z,1.70
2023-07-03T00:38:05.261Z,1.27
2023-07-03T00:40:33.608Z,1.27
2023-07-03T00:43:02.143Z,2.03
2023-07-03T00:45:30.422Z,1.50
2023-07-03T00:47:59.873Z,1.37
2023-07-03T00:50:30.417Z,1.80
2023-07-03T00:53:01.625Z,1.33
2023-07-03T00:55:29.867Z,1.40
2023-07-03T00:57:59.729Z,1.60
2023-07-03T01:00:41.852Z,1.73
2023-07-03T01:03:17.984Z,1.60
2023-07-03T01:05:51.924Z,1.07
2023-07-03T01:08:22.042Z,1.60
2023-07-03T01:10:50.742Z,1.43
2023-07-03T01:13:20.239Z,1.60
2023-07-03T01:15:49.228Z,1.07
2023-07-03T01:18:20.454Z,1.70
2023-07-03T01:20:58.978Z,1.23
2023-07-03T01:23:31.242Z,1.80
2023-07-03T01:26:01.872Z,1.73
2023-07-03T01:28:32.143Z,1.33
2023-07-03T01:31:00.909Z,1.50
2023-07-03T01:33:41.677Z,1.30
2023-07-03T01:36:27.444Z,1.77
2023-07-03T01:38:56.659Z,1.70
2023-07-03T01:41:27.859Z,1.90
2023-07-03T01:43:55.849Z,1.33
2023-07-03T01:46:24.982Z,1.50
2023-07-03T01:48:53.071Z,1.90
2023-07-03T01:51:30.629Z,1.43
2023-07-03T01:54:06.974Z,1.80
2023-07-03T01:56:42.556Z,1.37
2023-07-03T01:59:13.748Z,2.13
2023-07-03T02:01:48.375Z,1.80
2023-07-03T02:04:25.686Z,1.48
2023-07-03T02:06:55.297Z,1.60
2023-07-03T02:09:25.539Z,1.60
2023-07-03T02:11:55.499Z,1.40
2023-07-03T02:14:26.092Z,1.57
2023-07-03T02:16:54.629Z,1.45
2023-07-03T02:19:30.041Z,1.83
2023-07-03T02:21:58.427Z,1.98
2023-07-03T02:24:26.657Z,1.83
2023-07-03T02:26:56.031Z,1.90
2023-07-03T02:29:24.481Z,2.00
2023-07-03T02:31:52.454Z,1.70
2023-07-03T02:34:22.267Z,1.83
2023-07-03T02:36:50.491Z,1.67
2023-07-03T02:39:18.754Z,1.57
2023-07-03T02:41:46.663Z,1.30
2023-07-03T02:44:16.126Z,1.30
2023-07-03T02:46:44.271Z,1.60
2023-07-03T02:49:12.174Z,1.47
2023-07-03T02:51:42.830Z,1.50
2023-07-03T02:54:12.199Z,2.23
2023-07-03T02:56:40.071Z,1.57
2023-07-03T02:59:08.391Z,1.57
2023-07-03T03:01:38.755Z,1.57
2023-07-03T03:04:06.638Z,1.43
2023-07-03T03:06:35.292Z,1.40
2023-07-03T03:09:03.343Z,1.90
2023-07-03T03:11:31.186Z,1.53
2023-07-03T03:13:59.313Z,1.60
2023-07-03T03:16:27.744Z,1.50
2023-07-03T03:18:57.401Z,1.40
2023-07-03T03:21:25.320Z,1.87
2023-07-03T03:23:53.169Z,1.90
2023-07-03T03:26:21.600Z,2.00
2023-07-03T03:28:49.428Z,1.60
2023-07-03T03:31:17.702Z,1.77
2023-07-03T03:33:46.537Z,2.17
2023-07-03T03:36:15.819Z,1.60
2023-07-03T03:38:43.904Z,1.63
2023-07-03T03:41:11.817Z,1.60
2023-07-03T03:43:39.810Z,1.53
2023-07-03T03:46:09.118Z,1.53
2023-07-03T03:48:39.831Z,1.77
2023-07-03T03:51:07.802Z,1.57
2023-07-03T03:53:37.260Z,2.40
2023-07-03T03:56:06.311Z,1.80
2023-07-03T03:58:34.229Z,2.13
2023-07-03T04:01:03.263Z,1.93
2023-07-03T04:03:31.202Z,1.93
2023-07-03T04:06:03.572Z,1.50
2023-07-03T04:08:31.769Z,2.03
2023-07-03T04:11:04.231Z,1.30
2023-07-03T04:13:32.213Z,1.70
2023-07-03T04:16:03.352Z,2.15
2023-07-03T04:18:34.093Z,1.90
2023-07-03T04:21:02.083Z,1.57
2023-07-03T04:23:33.243Z,1.53
2023-07-03T04:26:03.901Z,1.97
2023-07-03T04:28:31.868Z,1.57
2023-07-03T04:30:59.830Z,1.77
2023-07-03T04:33:27.702Z,1.90
2023-07-03T04:35:55.943Z,1.97
2023-07-03T04:38:24.833Z,1.63
2023-07-03T04:40:53.494Z,1.57
2023-07-03T04:43:23.516Z,1.83
2023-07-03T04:45:53.264Z,2.00
2023-07-03T04:48:21.726Z,1.90
2023-07-03T04:50:50.792Z,1.83
2023-07-03T04:53:22.045Z,2.10
2023-07-03T04:55:52.141Z,1.67
2023-07-03T04:58:20.348Z,1.43
2023-07-03T05:00:50.106Z,1.97
2023-07-03T05:03:18.618Z,2.63
2023-07-03T05:05:46.859Z,2.03
2023-07-03T05:08:14.637Z,1.70
2023-07-03T05:10:44.861Z,1.87
2023-07-03T05:13:12.745Z,2.10
2023-07-03T05:15:40.698Z,1.90
2023-07-03T05:18:10.113Z,2.25
2023-07-03T05:20:38.005Z,2.22
2023-07-03T05:23:05.896Z,1.90
2023-07-03T05:25:33.755Z,2.13
2023-07-03T05:28:01.544Z,1.70
2023-07-03T05:30:29.636Z,2.22
2023-07-03T05:32:57.772Z,1.92
2023-07-03T05:35:27.396Z,1.83
2023-07-03T05:37:55.152Z,2.00
2023-07-03T05:40:23.290Z,1.90
2023-07-03T05:42:51.070Z,2.10
2023-07-03T05:45:22.111Z,1.80
2023-07-03T05:47:51.989Z,1.73
2023-07-03T05:50:19.843Z,2.10
2023-07-03T05:52:49.520Z,2.47
2023-07-03T05:55:19.850Z,1.77
2023-07-03T05:57:47.697Z,2.78
2023-07-03T06:00:16.639Z,2.40
2023-07-03T06:02:45.646Z,1.75
2023-07-03T06:05:14.484Z,1.80
2023-07-03T06:07:42.661Z,1.80
2023-07-03T06:10:13.646Z,1.97
2023-07-03T06:12:41.787Z,1.95
2023-07-03T06:15:10.936Z,1.50
2023-07-03T06:17:39.941Z,1.67
2023-07-03T06:20:10.104Z,2.85
2023-07-03T06:22:38.040Z,2.10
2023-07-03T06:25:07.757Z,1.50
2023-07-03T06:27:37.118Z,1.60
2023-07-03T06:30:05.899Z,2.13
2023-07-03T06:32:33.835Z,1.33
2023-07-03T06:35:05.180Z,1.67
2023-07-03T06:37:35.095Z,1.40
2023-07-03T06:40:03.460Z,1.58
2023-07-03T06:42:31.290Z,1.80
2023-07-03T06:45:00.415Z,2.33
2023-07-03T06:47:28.336Z,1.25
2023-07-03T06:49:56.248Z,2.10
2023-07-03T06:52:24.056Z,1.52
2023-07-03T06:54:52.255Z,2.40
2023-07-03T06:57:20.091Z,1.35
2023-07-03T06:59:47.919Z,1.40
2023-07-03T07:02:17.142Z,1.95
2023-07-03T07:04:46.551Z,1.25
2023-07-03T07:07:14.722Z,1.42
2023-07-03T07:09:42.692Z,1.60
2023-07-03T07:12:10.663Z,1.63
2023-07-03T07:14:38.730Z,1.75
2023-07-03T07:17:07.048Z,1.80
2023-07-03T07:19:36.213Z,1.45
2023-07-03T07:22:04.725Z,1.85
2023-07-03T07:24:32.619Z,2.20
2023-07-03T07:27:01.530Z,1.40
2023-07-03T07:29:29.383Z,2.00
2023-07-03T07:31:58.822Z,1.98
2023-07-03T07:34:26.909Z,1.10
2023-07-03T07:36:56.122Z,1.02
2023-07-03T07:39:26.995Z,1.27
2023-07-03T07:41:56.701Z,1.80
2023-07-03T07:44:25.124Z,1.55
2023-07-03T07:46:53.176Z,1.55
2023-07-03T07:49:21.065Z,1.20
2023-07-03T07:51:48.868Z,1.30
2023-07-03T07:54:18.393Z,1.27
2023-07-03T07:56:46.493Z,1.75
2023-07-03T07:59:15.432Z,1.60
2023-07-03T08:01:43.634Z,1.27
2023-07-03T08:04:11.561Z,1.67
2023-07-03T08:06:39.413Z,2.70
2023-07-03T08:09:07.216Z,1.50
2023-07-03T08:11:36.439Z,1.15
2023-07-03T08:14:04.260Z,1.33
2023-07-03T08:16:32.072Z,1.35
2023-07-03T08:18:59.929Z,1.13
2023-07-03T08:21:28.836Z,1.30
2023-07-03T08:23:56.766Z,1.20
2023-07-03T08:26:26.373Z,1.20
2023-07-03T08:28:55.490Z,1.63
2023-07-03T08:31:23.279Z,2.22
2023-07-03T08:33:53.590Z,1.85
2023-07-03T08:38:52.514Z,1.40
2023-07-03T08:41:21.296Z,1.95
2023-07-03T08:43:51.894Z,1.63
2023-07-03T08:46:24.696Z,1.30
2023-07-03T08:48:55.883Z,1.52
2023-07-03T08:51:27.128Z,1.27
2023-07-03T08:53:58.596Z,1.52
2023-07-03T08:56:30.546Z,1.30
2023-07-03T08:58:58.638Z,1.40
2023-07-03T09:01:37.129Z,0.95
2023-07-03T09:04:17.754Z,1.17
2023-07-03T09:06:56.422Z,1.20
2023-07-03T09:09:29.794Z,0.80
2023-07-03T09:12:03.961Z,1.20
2023-07-03T09:14:35.562Z,1.45
2023-07-03T09:17:09.554Z,1.45
2023-07-03T09:19:41.368Z,1.30
2023-07-03T09:22:15.444Z,1.13
2023-07-03T09:24:46.423Z,1.10
2023-07-03T09:27:18.474Z,1.50
2023-07-03T09:29:47.504Z,1.15
2023-07-03T09:32:28.179Z,1.10
2023-07-03T09:35:01.172Z,1.08
2023-07-03T09:37:29.698Z,1.33
2023-07-03T09:39:58.020Z,0.88
2023-07-03T09:42:28.005Z,1.00
2023-07-03T09:44:58.984Z,0.98
2023-07-03T09:47:33.238Z,0.90
2023-07-03T09:50:07.676Z,1.23
2023-07-03T09:52:47.247Z,0.93
2023-07-03T09:55:22.296Z,1.00
2023-07-03T09:57:50.591Z,0.80
2023-07-03T10:00:22.028Z,1.02
2023-07-03T10:08:05.285Z,1.20
2023-07-03T10:13:14.831Z,1.10
2023-07-03T10:15:45.188Z,0.73
2023-07-03T10:18:29.454Z,0.90
2023-07-03T10:20:58.601Z,1.10
2023-07-03T10:23:29.474Z,1.00
2023-07-03T10:26:05.946Z,0.85
2023-07-03T10:28:38.944Z,1.00
2023-07-03T10:31:11.993Z,0.82
2023-07-03T10:33:47.564Z,0.80
2023-07-03T10:36:20.634Z,1.10
2023-07-03T10:38:56.510Z,0.90
2023-07-03T10:41:28.950Z,0.90
2023-07-03T10:44:01.021Z,0.70
2023-07-03T10:46:35.379Z,0.50
2023-07-03T10:49:11.159Z,0.50
2023-07-03T10:51:48.250Z,0.50
2023-07-03T10:54:22.937Z,0.50
2023-07-03T10:56:56.498Z,0.45
2023-07-03T10:59:28.898Z,0.50
2023-07-03T11:02:09.800Z,0.50
2023-07-03T11:04:46.890Z,0.57
2023-07-03T11:07:24.359Z,0.73
2023-07-03T11:10:00.660Z,0.73
2023-07-03T11:12:37.220Z,1.13
2023-07-03T11:15:17.072Z,0.50
2023-07-03T11:23:14.442Z,0.80
2023-07-03T11:28:28.648Z,0.70
2023-07-03T11:30:57.434Z,0.88
2023-07-03T11:33:25.847Z,1.10
2023-07-03T11:35:57.078Z,0.90
2023-07-03T11:43:50.282Z,0.93
2023-07-03T11:46:24.614Z,0.55
2023-07-03T11:48:58.198Z,0.73
2023-07-03T11:51:36.393Z,0.30
2023-07-03T11:54:21.257Z,0.47
2023-07-03T11:56:55.612Z,0.30
2023-07-03T11:59:32.939Z,0.35
2023-07-03T12:02:46.697Z,0.55
2023-07-03T12:05:54.754Z,0.60
2023-07-03T12:08:46.152Z,0.50
2023-07-03T12:11:16.080Z,0.50
2023-07-03T12:14:00.702Z,0.30
2023-07-03T12:16:33.373Z,0.50
2023-07-03T12:19:08.391Z,0.28
2023-07-03T12:21:44.074Z,0.32
2023-07-03T12:24:22.546Z,0.43
2023-07-03T12:26:56.209Z,0.60
2023-07-03T12:29:24.324Z,0.57
2023-07-03T12:31:57.006Z,0.30
2023-07-03T12:34:28.458Z,0.30
2023-07-03T12:37:05.181Z,0.30
2023-07-03T12:39:35.069Z,0.47
2023-07-03T12:42:11.325Z,0.60
2023-07-03T12:44:39.631Z,0.57
2023-07-03T12:47:13.854Z,0.63
2023-07-03T12:49:59.955Z,0.25
2023-07-03T12:52:30.323Z,0.65
2023-07-03T12:55:13.081Z,0.38
2023-07-03T12:57:42.770Z,0.85
2023-07-03T13:00:18.031Z,0.82
2023-07-03T13:02:46.689Z,0.93
2023-07-03T13:05:21.735Z,0.70
2023-07-03T13:07:51.144Z,0.43
2023-07-03T13:10:21.410Z,0.50
2023-07-03T13:13:05.514Z,0.30
2023-07-03T13:15:35.559Z,0.60
2023-07-03T13:18:05.930Z,0.70
2023-07-03T13:20:34.030Z,0.50
2023-07-03T13:23:03.410Z,0.45
2023-07-03T13:25:35.777Z,0.68
2023-07-03T13:28:06.850Z,0.77
2023-07-03T13:30:37.814Z,0.60
2023-07-03T13:33:09.101Z,0.45
2023-07-03T13:35:40.584Z,0.50
2023-07-03T13:38:30.009Z,0.60
2023-07-03T13:41:01.294Z,0.80
2023-07-03T13:43:31.395Z,0.40
2023-07-03T13:46:00.046Z,0.60
2023-07-03T13:48:29.253Z,0.55
2023-07-03T13:50:57.835Z,0.40
2023-07-03T13:53:27.539Z,0.57
2023-07-03T13:55:56.058Z,0.80
2023-07-03T13:58:26.535Z,1.00
2023-07-03T14:00:54.514Z,0.68
2023-07-03T14:03:22.519Z,0.73
2023-07-03T14:05:51.283Z,0.70
2023-07-03T14:08:19.543Z,0.85
2023-07-03T14:10:48.069Z,0.47
2023-07-03T14:13:15.896Z,0.70
2023-07-03T14:15:45.319Z,0.50
2023-07-03T14:18:13.695Z,0.45
2023-07-03T14:20:42.940Z,0.60
2023-07-03T14:23:11.195Z,0.63
2023-07-03T14:25:40.146Z,0.40
2023-07-03T14:28:08.781Z,1.13
2023-07-03T14:30:36.630Z,1.38
2023-07-03T14:33:06.525Z,0.60
2023-07-03T14:35:35.189Z,0.80
2023-07-03T14:38:03.033Z,0.60
2023-07-03T14:40:30.865Z,0.60
2023-07-03T14:42:58.704Z,0.68
2023-07-03T14:45:26.867Z,0.82
2023-07-03T14:47:54.654Z,0.60
2023-07-03T14:50:23.869Z,0.50
2023-07-03T14:52:52.062Z,0.73
2023-07-03T14:55:20.554Z,0.60
2023-07-03T14:57:48.489Z,0.70
2023-07-03T15:00:16.935Z,0.80
2023-07-03T15:02:49.900Z,0.63
2023-07-03T15:05:18.989Z,0.73
2023-07-03T15:07:51.210Z,0.70
2023-07-03T15:10:21.005Z,1.00
2023-07-03T15:12:49.079Z,1.20
2023-07-03T15:15:17.002Z,1.10
2023-07-03T15:17:44.784Z,0.90
2023-07-03T15:20:13.192Z,1.00
2023-07-03T15:22:41.022Z,0.80
2023-07-03T15:25:10.860Z,1.43
2023-07-03T15:27:38.658Z,0.52
2023-07-03T15:30:07.552Z,1.13
2023-07-03T15:32:35.306Z,0.70
2023-07-03T15:35:03.289Z,0.90
2023-07-03T15:37:31.033Z,0.90
2023-07-03T15:39:58.755Z,1.20
2023-07-03T15:42:28.063Z,0.70
2023-07-03T15:44:57.165Z,0.60
2023-07-03T15:47:25.868Z,0.80
2023-07-03T15:49:56.549Z,0.90
2023-07-03T15:52:24.796Z,0.73
2023-07-03T15:54:53.356Z,1.02
2023-07-03T15:57:22.549Z,0.75
2023-07-03T15:59:51.871Z,1.02
2023-07-03T16:02:19.714Z,0.80
2023-07-03T16:04:47.560Z,1.05
2023-07-03T16:07:15.362Z,0.80
2023-07-03T16:09:43.846Z,0.80
2023-07-03T16:12:11.762Z,0.80
2023-07-03T16:14:39.689Z,0.77
2023-07-03T16:17:08.877Z,0.93
2023-07-03T16:19:37.917Z,0.70
2023-07-03T16:22:07.150Z,1.07
2023-07-03T16:24:35.886Z,0.90
2023-07-03T16:27:04.812Z,0.70
2023-07-03T16:29:33.650Z,0.70
2023-07-03T16:32:02.853Z,0.80
2023-07-03T16:34:32.284Z,0.83
2023-07-03T16:37:00.056Z,0.70
2023-07-03T16:39:27.822Z,0.60
2023-07-03T16:41:56.636Z,0.80
2023-07-03T16:44:24.956Z,0.90
2023-07-03T16:47:03.013Z,0.80
2023-07-03T16:49:38.868Z,0.80
2023-07-03T16:52:07.654Z,0.70
2023-07-03T16:54:35.993Z,0.50
2023-07-03T16:57:03.868Z,1.00
2023-07-03T16:59:33.808Z,0.70
2023-07-03T17:02:02.050Z,0.63
2023-07-03T17:04:30.920Z,1.33
2023-07-03T17:07:00.172Z,1.30
2023-07-03T17:09:28.236Z,1.17
2023-07-03T17:11:56.405Z,1.07
2023-07-03T17:14:26.079Z,1.07
2023-07-03T17:16:54.155Z,0.93
2023-07-03T17:19:22.739Z,1.07
2023-07-03T17:21:50.933Z,0.80
2023-07-03T17:24:21.662Z,0.80
2023-07-03T17:26:49.474Z,0.90
2023-07-03T17:29:19.583Z,0.97
2023-07-03T17:31:47.593Z,1.20
2023-07-03T17:34:15.988Z,0.90
2023-07-03T17:36:43.855Z,1.10
2023-07-03T17:39:12.188Z,1.00
2023-07-03T17:41:44.307Z,0.77
2023-07-03T17:44:12.116Z,1.07
2023-07-03T17:46:42.419Z,1.10
2023-07-03T17:49:10.297Z,1.23
2023-07-03T17:51:39.791Z,1.50
2023-07-03T17:54:07.814Z,1.40
2023-07-03T17:56:35.806Z,1.17
2023-07-03T17:59:07.384Z,0.90
2023-07-03T18:01:36.680Z,1.17
2023-07-03T18:04:06.423Z,0.87
2023-07-03T18:06:35.670Z,1.02
2023-07-03T18:09:05.368Z,1.00
2023-07-03T18:11:33.256Z,1.00
2023-07-03T18:14:03.233Z,1.13
2023-07-03T18:16:32.456Z,1.20
2023-07-03T18:19:00.284Z,2.17
2023-07-03T18:21:28.600Z,0.90
2023-07-03T18:23:58.369Z,1.20
2023-07-03T18:26:26.453Z,1.08
2023-07-03T18:28:56.252Z,1.13
2023-07-03T18:31:27.263Z,1.20
2023-07-03T18:33:57.003Z,0.90
2023-07-03T18:36:25.597Z,1.23
2023-07-03T18:38:54.029Z,1.47
2023-07-03T18:41:22.808Z,0.80
2023-07-03T18:43:50.887Z,1.10
2023-07-03T18:46:18.827Z,1.00
2023-07-03T18:48:46.925Z,1.07
2023-07-03T18:51:22.525Z,0.77
2023-07-03T18:53:50.649Z,0.93
2023-07-03T18:56:21.695Z,1.17
2023-07-03T18:58:50.991Z,1.10
2023-07-03T19:01:19.954Z,0.90
2023-07-03T19:03:48.221Z,1.20
2023-07-03T19:06:19.713Z,1.00
2023-07-03T19:08:47.532Z,0.80
2023-07-03T19:11:15.513Z,1.00
2023-07-03T19:13:43.870Z,1.17
2023-07-03T19:16:14.452Z,0.90
2023-07-03T19:18:42.763Z,0.77
2023-07-03T19:21:13.267Z,1.00
2023-07-03T19:23:42.756Z,0.70
2023-07-03T19:26:11.365Z,1.50
2023-07-03T19:28:39.812Z,0.90
2023-07-03T19:31:08.034Z,0.93
2023-07-03T19:33:36.092Z,0.73
2023-07-03T19:36:04.119Z,0.63
2023-07-03T19:38:32.047Z,0.90
2023-07-03T19:41:01.816Z,1.00
2023-07-03T19:43:29.804Z,0.80
2023-07-03T19:45:58.006Z,0.90
2023-07-03T19:48:26.326Z,1.10
2023-07-03T19:50:54.196Z,0.93
2023-07-03T19:53:22.080Z,0.83
2023-07-03T19:55:50.149Z,0.70
2023-07-03T19:58:19.500Z,0.70
2023-07-03T20:00:53.508Z,0.80
2023-07-03T20:03:21.603Z,0.83
2023-07-03T20:05:49.842Z,0.93
2023-07-03T20:08:17.743Z,1.20
2023-07-03T20:10:47.564Z,1.30
2023-07-03T20:13:15.408Z,1.10
2023-07-03T20:15:44.766Z,1.00
2023-07-03T20:18:12.733Z,1.10
2023-07-03T20:20:41.409Z,0.90
2023-07-03T20:23:09.311Z,0.87
2023-07-03T20:25:38.293Z,0.70
2023-07-03T20:28:08.076Z,1.20
2023-07-03T20:30:35.971Z,0.90
2023-07-03T20:33:05.344Z,0.83
2023-07-03T20:35:33.394Z,1.10
2023-07-03T20:38:01.143Z,0.90
2023-07-03T20:40:29.073Z,1.00
2023-07-03T20:42:59.929Z,0.80
2023-07-03T20:45:28.329Z,0.73
2023-07-03T20:47:57.046Z,0.90
2023-07-03T20:50:28.049Z,1.07
2023-07-03T20:53:10.580Z,1.60
2023-07-03T20:55:44.285Z,1.30
2023-07-03T20:58:12.717Z,1.23
2023-07-03T21:00:40.489Z,0.80
2023-07-03T21:03:08.362Z,0.87
2023-07-03T21:05:41.788Z,0.80
2023-07-03T21:08:11.688Z,0.90
2023-07-03T21:10:39.670Z,1.27
2023-07-03T21:13:07.507Z,1.13
2023-07-03T21:15:35.302Z,1.27
2023-07-03T21:18:03.311Z,0.90
2023-07-03T21:20:31.195Z,1.00
2023-07-03T21:23:01.796Z,0.87
2023-07-03T21:25:30.937Z,0.90
2023-07-03T21:27:58.793Z,1.00
2023-07-03T21:30:26.699Z,0.80
2023-07-03T21:32:54.865Z,0.93
2023-07-03T21:35:23.031Z,1.57
2023-07-03T21:37:50.898Z,1.17
2023-07-03T21:40:20.110Z,1.17
2023-07-03T21:42:47.993Z,1.10
2023-07-03T21:45:15.964Z,1.00
2023-07-03T21:47:49.332Z,1.00
2023-07-03T21:50:18.375Z,0.70
2023-07-03T21:52:47.135Z,1.20
2023-07-03T21:55:14.955Z,1.13
2023-07-03T21:57:44.120Z,0.77
2023-07-03T22:00:14.160Z,1.20
2023-07-03T22:02:42.417Z,1.50
2023-07-03T22:05:10.928Z,1.30
2023-07-03T22:07:38.984Z,1.30
2023-07-03T22:10:07.794Z,0.80
2023-07-03T22:12:35.639Z,0.67
2023-07-03T22:15:05.852Z,0.97
2023-07-03T22:17:33.628Z,1.03
2023-07-03T22:20:02.545Z,1.00
2023-07-03T22:22:30.895Z,1.10
2023-07-03T22:25:01.467Z,1.10
2023-07-03T22:27:29.336Z,1.20
2023-07-03T22:29:57.501Z,1.17
2023-07-03T22:32:30.272Z,1.20
2023-07-03T22:34:58.413Z,1.03
2023-07-03T22:37:26.194Z,0.90
2023-07-03T22:39:54.003Z,1.50
2023-07-03T22:42:21.829Z,0.87
2023-07-03T22:44:49.938Z,1.20
2023-07-03T22:47:17.708Z,0.90
2023-07-03T22:49:48.507Z,1.30
2023-07-03T22:52:16.433Z,1.57
2023-07-03T22:54:47.348Z,1.10
2023-07-03T22:57:15.230Z,1.03
2023-07-03T22:59:43.027Z,1.07
2023-07-03T23:02:10.764Z,1.20
2023-07-03T23:04:38.608Z,1.27
2023-07-03T23:07:08.627Z,1.23
2023-07-03T23:09:37.371Z,1.47
2023-07-03T23:12:05.878Z,1.83
2023-07-03T23:14:33.902Z,1.43
2023-07-03T23:17:06.006Z,1.40
2023-07-03T23:19:33.888Z,0.90
2023-07-03T23:22:01.666Z,1.40
2023-07-03T23:24:37.938Z,1.10
2023-07-03T23:27:06.669Z,1.20
2023-07-03T23:29:34.504Z,1.07
2023-07-03T23:32:02.558Z,1.10
2023-07-03T23:34:30.861Z,0.90
2023-07-03T23:36:58.795Z,0.90
2023-07-03T23:39:27.621Z,0.97
2023-07-03T23:41:56.766Z,1.30
2023-07-03T23:44:25.324Z,0.67
2023-07-03T23:46:53.340Z,0.93
2023-07-03T23:49:21.152Z,0.90
2023-07-03T23:51:49.903Z,0.83
2023-07-03T23:54:17.841Z,1.13
2023-07-03T23:56:46.928Z,0.80
2023-07-03T23:59:20.124Z,0.80
